Time;durP1;ratioP1;P1;durP2;ratioP2;P2;SDS_P1;SDS_P2;PMS_P1;PMS_P2;Temp;Humidity;BMP_temperature;BMP_pressure;BME280_temperature;BME280_humidity;BME280_pressure;Samples;Min_cycle;Max_cycle;Signal;HPM_P1;HPM_P2
2022/12/21 00:00:20;;;;;;;31.13;23.05;;;6.30;1.00;;;;;;6261417;22;20204;-80
2022/12/21 00:02:52;;;;;;;27.75;21.65;;;6.20;1.00;;;;;;6256992;22;20219;-79
2022/12/21 00:05:20;;;;;;;27.75;19.60;;;6.10;1.00;;;;;;6259754;22;20252;-81
2022/12/21 00:07:51;;;;;;;31.58;21.13;;;6.00;1.00;;;;;;6256137;22;20212;-81
2022/12/21 00:10:19;;;;;;;27.17;19.00;;;6.00;1.00;;;;;;6260627;22;20213;-82
2022/12/21 00:12:51;;;;;;;40.50;19.58;;;6.00;1.00;;;;;;6259882;22;21027;-80
2022/12/21 00:15:18;;;;;;;29.67;19.55;;;6.00;1.00;;;;;;6260769;22;20213;-78
2022/12/21 00:17:48;;;;;;;27.23;20.75;;;6.00;1.00;;;;;;6260591;22;20235;-78
2022/12/21 00:20:15;;;;;;;30.02;20.38;;;6.00;1.00;;;;;;6261350;22;20228;-78
2022/12/21 00:22:43;;;;;;;28.60;20.63;;;6.00;1.00;;;;;;6257332;22;20224;-79
2022/12/21 00:25:12;;;;;;;27.98;20.13;;;6.00;1.00;;;;;;6260178;22;20205;-82
2022/12/21 00:27:39;;;;;;;28.88;20.60;;;5.90;1.00;;;;;;6254572;22;20209;-82
2022/12/21 00:30:12;;;;;;;26.80;20.55;;;5.90;1.00;;;;;;6261519;22;20213;-81
2022/12/21 00:32:38;;;;;;;30.15;20.50;;;5.80;1.00;;;;;;6258630;22;20723;-79
2022/12/21 00:35:10;;;;;;;29.77;20.05;;;5.80;1.00;;;;;;6260320;22;20340;-81
2022/12/21 00:37:37;;;;;;;31.58;21.65;;;5.80;1.00;;;;;;6257788;22;20216;-81
2022/12/21 00:40:14;;;;;;;31.63;21.13;;;5.80;1.00;;;;;;6262540;22;20684;-81
2022/12/21 00:42:41;;;;;;;27.35;18.85;;;5.70;1.00;;;;;;6258931;22;20205;-80
2022/12/21 00:45:17;;;;;;;29.40;18.38;;;5.80;1.00;;;;;;6261729;22;20252;-78
2022/12/21 00:47:44;;;;;;;28.42;19.35;;;5.80;1.00;;;;;;6261475;22;20202;-81
2022/12/21 00:50:12;;;;;;;30.77;19.60;;;5.80;1.00;;;;;;6263324;22;20196;-80
2022/12/21 00:52:39;;;;;;;32.67;21.58;;;5.80;1.00;;;;;;6262172;22;20212;-81
2022/12/21 00:55:12;;;;;;;29.83;21.25;;;5.80;1.00;;;;;;6260600;22;20217;-81
2022/12/21 00:57:39;;;;;;;29.17;20.45;;;5.80;1.00;;;;;;6259062;22;20271;-81
2022/12/21 01:00:12;;;;;;;27.23;20.73;;;5.80;1.00;;;;;;6258802;22;20267;-79
2022/12/21 01:02:41;;;;;;;31.35;22.25;;;5.80;1.00;;;;;;6258203;22;20209;-83
2022/12/21 01:05:11;;;;;;;32.25;19.60;;;5.80;1.00;;;;;;6261642;22;20213;-80
2022/12/21 01:07:39;;;;;;;32.97;21.60;;;5.80;1.00;;;;;;6261342;22;20201;-82
2022/12/21 01:10:12;;;;;;;30.40;21.40;;;5.80;1.00;;;;;;6260648;22;20271;-82
2022/12/21 01:12:39;;;;;;;34.53;21.73;;;5.90;1.00;;;;;;6259477;22;20209;-80
2022/12/21 01:15:11;;;;;;;28.20;20.30;;;5.80;1.00;;;;;;6254991;22;20268;-82
2022/12/21 01:17:39;;;;;;;29.50;20.63;;;5.80;1.00;;;;;;6259307;22;21003;-83
2022/12/21 01:20:11;;;;;;;29.50;21.15;;;5.80;1.00;;;;;;6262708;22;20209;-81
2022/12/21 01:22:39;;;;;;;29.65;21.77;;;5.80;1.00;;;;;;6258428;22;20209;-81
2022/12/21 01:25:13;;;;;;;30.20;20.88;;;5.80;1.00;;;;;;6261063;22;20209;-81
2022/12/21 01:27:42;;;;;;;31.08;21.13;;;5.80;1.00;;;;;;6259270;22;20212;-83
2022/12/21 01:30:12;;;;;;;31.80;22.90;;;5.80;1.00;;;;;;6261368;22;20256;-83
2022/12/21 01:32:39;;;;;;;32.75;21.02;;;5.80;1.00;;;;;;6257958;22;20209;-83
2022/12/21 01:35:17;;;;;;;29.75;20.60;;;5.70;1.00;;;;;;6259980;22;20225;-84
2022/12/21 01:37:44;;;;;;;32.22;20.70;;;5.80;1.00;;;;;;6257802;22;20212;-82
2022/12/21 01:40:16;;;;;;;28.55;20.38;;;5.80;1.00;;;;;;6259284;22;20205;-82
2022/12/21 01:42:43;;;;;;;35.22;22.10;;;5.80;1.00;;;;;;6256987;22;20249;-83
2022/12/21 01:45:18;;;;;;;30.95;21.38;;;5.80;1.00;;;;;;6259813;22;20220;-82
2022/12/21 01:47:53;;;;;;;29.10;21.08;;;5.80;1.00;;;;;;6218828;22;20216;-80
2022/12/21 01:50:34;;;;;;;31.98;22.83;;;5.70;1.00;;;;;;6261200;22;20267;-83
2022/12/21 01:53:11;;;;;;;31.40;22.10;;;5.70;1.00;;;;;;6259453;22;20297;-83
2022/12/21 01:55:41;;;;;;;30.85;21.80;;;5.80;1.00;;;;;;6261057;22;20212;-82
2022/12/21 01:58:12;;;;;;;33.03;21.65;;;5.70;1.00;;;;;;6260852;22;20209;-81
2022/12/21 02:00:41;;;;;;;33.92;21.35;;;5.70;1.00;;;;;;6259009;22;20239;-80
2022/12/21 02:03:14;;;;;;;30.40;21.40;;;5.70;1.00;;;;;;6261095;22;20209;-80
2022/12/21 02:05:52;;;;;;;37.15;22.27;;;5.70;1.00;;;;;;6259146;22;20228;-82
2022/12/21 02:08:20;;;;;;;32.05;22.25;;;5.70;1.00;;;;;;6258146;22;20213;-80
2022/12/21 02:10:54;;;;;;;29.40;22.08;;;5.70;1.00;;;;;;6261444;22;20209;-81
2022/12/21 02:13:21;;;;;;;33.70;22.08;;;5.70;1.00;;;;;;6261609;22;20212;-83
2022/12/21 02:16:03;;;;;;;29.40;20.60;;;5.70;1.00;;;;;;6258844;22;20224;-83
2022/12/21 02:18:50;;;;;;;34.00;22.02;;;5.70;1.00;;;;;;6261743;22;20197;-82
2022/12/21 02:21:30;;;;;;;36.17;24.30;;;5.70;1.00;;;;;;6258649;22;20305;-79
2022/12/21 02:24:36;;;;;;;32.42;22.20;;;5.70;1.00;;;;;;6258171;22;20221;-80
2022/12/21 02:27:44;;;;;;;32.30;23.88;;;5.70;1.00;;;;;;6261042;22;20185;-80
2022/12/21 02:30:17;;;;;;;33.97;22.00;;;5.70;1.00;;;;;;6208902;22;20232;-84
2022/12/21 02:33:05;;;;;;;35.45;25.00;;;5.70;1.00;;;;;;6260489;22;20289;-84
2022/12/21 02:35:51;;;;;;;34.33;22.30;;;5.60;1.00;;;;;;6259321;22;20228;-81
2022/12/21 02:38:39;;;;;;;32.10;22.65;;;5.60;1.00;;;;;;6261025;22;20683;-82
2022/12/21 02:41:15;;;;;;;32.78;23.13;;;5.60;1.00;;;;;;6258687;22;20217;-81
2022/12/21 02:46:43;;;;;;;33.42;22.48;;;5.60;1.00;;;;;;6240060;22;20228;-80
2022/12/21 02:49:21;;;;;;;37.22;24.17;;;5.60;1.00;;;;;;6261927;22;20189;-80
2022/12/21 02:52:01;;;;;;;32.53;22.70;;;5.60;1.00;;;;;;6232654;22;20237;-82
2022/12/21 02:54:34;;;;;;;32.65;23.58;;;5.60;1.00;;;;;;6260978;22;20197;-82
2022/12/21 02:57:01;;;;;;;33.22;23.58;;;5.60;1.00;;;;;;6261270;22;20639;-81
2022/12/21 02:59:36;;;;;;;34.75;23.13;;;5.60;1.00;;;;;;6261079;22;20229;-79
2022/12/21 03:02:31;;;;;;;35.28;22.60;;;5.60;1.00;;;;;;6260652;22;20283;-81
2022/12/21 03:05:23;;;;;;;36.40;22.98;;;5.60;1.00;;;;;;6260332;22;20225;-82
2022/12/21 03:08:04;;;;;;;36.42;22.30;;;5.60;1.00;;;;;;6258015;22;20205;-82
2022/12/21 03:10:52;;;;;;;35.63;23.75;;;5.60;1.00;;;;;;6261556;22;20196;-82
2022/12/21 03:13:33;;;;;;;35.90;22.33;;;5.60;1.00;;;;;;6259771;22;20217;-83
2022/12/21 03:16:15;;;;;;;38.42;24.80;;;5.60;1.00;;;;;;6260321;22;20664;-83
2022/12/21 03:18:56;;;;;;;35.45;23.95;;;5.60;1.00;;;;;;6259074;22;20217;-80
2022/12/21 03:21:36;;;;;;;36.05;22.23;;;5.60;1.00;;;;;;6259498;22;20217;-80
2022/12/21 03:24:12;;;;;;;32.40;22.33;;;5.50;1.00;;;;;;6243387;22;20274;-81
2022/12/21 03:26:42;;;;;;;35.75;23.50;;;5.50;1.00;;;;;;6259352;22;20213;-80
2022/12/21 03:29:17;;;;;;;36.58;22.65;;;5.50;1.00;;;;;;6258200;22;21044;-80
2022/12/21 03:31:53;;;;;;;34.22;22.58;;;5.50;1.00;;;;;;6252280;22;20220;-80
2022/12/21 03:34:23;;;;;;;37.92;23.40;;;5.50;1.00;;;;;;6254810;22;20220;-81
2022/12/21 03:36:57;;;;;;;39.22;25.38;;;5.50;1.00;;;;;;6256139;22;21005;-80
2022/12/21 03:39:27;;;;;;;39.75;26.70;;;5.60;1.00;;;;;;6258946;22;20696;-80
2022/12/21 03:41:58;;;;;;;36.00;24.08;;;5.60;1.00;;;;;;6259494;22;20227;-83
2022/12/21 03:44:32;;;;;;;36.08;23.27;;;5.50;1.00;;;;;;6255799;22;20224;-80
2022/12/21 03:47:03;;;;;;;35.00;24.80;;;5.40;1.00;;;;;;6259034;22;20217;-81
2022/12/21 03:49:36;;;;;;;37.50;25.58;;;5.50;1.00;;;;;;6232634;22;20208;-80
2022/12/21 03:52:14;;;;;;;35.67;23.85;;;5.40;1.00;;;;;;6259688;22;20854;-83
2022/12/21 03:54:47;;;;;;;35.92;25.42;;;5.50;1.00;;;;;;6259398;22;20237;-80
2022/12/21 03:57:16;;;;;;;41.58;24.48;;;5.40;1.00;;;;;;6260108;22;20696;-80
2022/12/21 03:59:47;;;;;;;39.22;26.20;;;5.40;1.00;;;;;;6258967;22;20216;-79
2022/12/21 04:02:19;;;;;;;39.78;25.00;;;5.50;1.00;;;;;;6261936;22;20658;-83
2022/12/21 04:04:56;;;;;;;37.60;25.48;;;5.50;1.00;;;;;;6259737;22;21122;-82
2022/12/21 04:07:32;;;;;;;42.78;26.63;;;5.50;1.00;;;;;;6257125;22;20212;-84
2022/12/21 04:10:12;;;;;;;38.25;23.75;;;5.50;1.00;;;;;;6260616;22;20208;-81
2022/12/21 04:12:39;;;;;;;36.65;24.80;;;5.50;1.00;;;;;;6261713;22;20656;-82
2022/12/21 04:15:15;;;;;;;35.20;24.20;;;5.50;1.00;;;;;;6260205;22;20750;-80
2022/12/21 04:17:44;;;;;;;35.72;25.00;;;5.50;1.00;;;;;;6259340;22;20224;-80
2022/12/21 04:20:15;;;;;;;39.75;26.02;;;5.50;1.00;;;;;;6259685;22;20197;-80
2022/12/21 04:28:23;;;;;;;37.78;25.20;;;5.60;1.00;;;;;;6258831;22;20205;-81
2022/12/21 04:30:52;;;;;;;36.25;24.58;;;5.60;1.00;;;;;;6253561;22;20205;-81
2022/12/21 04:33:21;;;;;;;38.28;25.13;;;5.60;1.00;;;;;;6255144;22;20538;-81
2022/12/21 04:38:49;;;;;;;34.88;25.58;;;5.60;1.00;;;;;;6236590;22;20255;-81
2022/12/21 04:41:24;;;;;;;41.80;26.67;;;5.60;1.00;;;;;;6253871;22;20208;-81
2022/12/21 04:43:53;;;;;;;37.65;24.73;;;5.60;1.00;;;;;;6251089;22;20223;-81
2022/12/21 04:46:20;;;;;;;40.17;27.30;;;5.60;1.00;;;;;;6255613;22;21076;-80
2022/12/21 04:48:54;;;;;;;39.00;26.05;;;5.60;1.00;;;;;;6253991;22;20213;-81
2022/12/21 04:51:25;;;;;;;41.75;26.60;;;5.60;1.00;;;;;;6253269;22;20263;-80
2022/12/21 04:53:56;;;;;;;39.30;24.70;;;5.60;1.00;;;;;;6254288;22;20271;-81
2022/12/21 04:56:23;;;;;;;40.05;27.10;;;5.70;1.00;;;;;;6253809;22;20219;-80
2022/12/21 04:58:54;;;;;;;45.92;27.13;;;5.70;1.00;;;;;;6254341;22;20263;-81
2022/12/21 05:01:24;;;;;;;40.20;25.13;;;5.70;1.00;;;;;;6252771;22;20209;-80
2022/12/21 05:03:53;;;;;;;40.38;26.85;;;5.60;1.00;;;;;;6253439;22;20220;-79
2022/12/21 05:06:20;;;;;;;42.00;27.60;;;5.60;1.00;;;;;;6257150;22;20201;-81
2022/12/21 05:08:47;;;;;;;42.55;28.55;;;5.70;1.00;;;;;;6254844;22;20938;-83
2022/12/21 05:11:18;;;;;;;38.92;26.25;;;5.70;1.00;;;;;;6250216;22;20836;-82
2022/12/21 05:13:46;;;;;;;40.60;26.38;;;5.80;1.00;;;;;;6255813;22;20295;-81
2022/12/21 05:16:16;;;;;;;38.58;25.98;;;5.80;1.00;;;;;;6254540;22;20825;-81
2022/12/21 05:18:44;;;;;;;42.60;27.55;;;5.70;1.00;;;;;;6254791;22;20213;-80
2022/12/21 05:21:13;;;;;;;37.85;26.33;;;5.80;1.00;;;;;;6256063;22;20209;-80
2022/12/21 05:23:40;;;;;;;46.33;27.30;;;5.90;1.00;;;;;;6252699;22;20224;-78
2022/12/21 05:26:13;;;;;;;36.78;24.85;;;5.90;1.00;;;;;;6255209;22;20216;-80
2022/12/21 05:28:42;;;;;;;33.55;25.40;;;5.90;1.00;;;;;;6255322;22;20209;-80
2022/12/21 05:31:19;;;;;;;41.70;29.63;;;5.90;1.00;;;;;;6258307;22;20217;-82
2022/12/21 05:33:46;;;;;;;42.50;27.45;;;5.90;1.00;;;;;;6254096;22;20204;-82
2022/12/21 05:36:15;;;;;;;38.53;25.80;;;6.00;1.00;;;;;;6255629;22;20220;-83
2022/12/21 05:38:42;;;;;;;40.22;26.23;;;6.10;1.00;;;;;;6254833;22;20213;-83
2022/12/21 05:41:13;;;;;;;38.53;27.50;;;6.10;1.00;;;;;;6253522;22;20237;-83
2022/12/21 05:43:42;;;;;;;36.90;25.52;;;6.10;1.00;;;;;;6254482;22;20213;-82
2022/12/21 05:46:12;;;;;;;36.05;25.90;;;6.00;1.00;;;;;;6258318;22;20217;-84
2022/12/21 05:48:39;;;;;;;43.28;28.65;;;6.00;1.00;;;;;;6255206;22;20213;-82
2022/12/21 05:51:08;;;;;;;42.13;28.52;;;6.00;1.00;;;;;;6256859;22;20213;-82
2022/12/21 05:53:35;;;;;;;37.05;25.20;;;6.10;1.00;;;;;;6255369;22;20295;-82
2022/12/21 05:56:05;;;;;;;38.35;26.77;;;6.10;1.00;;;;;;6256275;22;20216;-83
2022/12/21 05:58:32;;;;;;;38.67;26.50;;;6.10;1.00;;;;;;6242647;22;20295;-83
2022/12/21 06:01:02;;;;;;;36.75;25.02;;;6.20;1.00;;;;;;6254636;22;20209;-83
2022/12/21 06:03:29;;;;;;;37.17;26.17;;;6.20;1.00;;;;;;6257998;22;20259;-83
2022/12/21 06:06:02;;;;;;;46.60;28.80;;;6.20;1.00;;;;;;6256822;22;20217;-83
2022/12/21 06:08:31;;;;;;;37.35;27.60;;;6.20;1.00;;;;;;6260552;22;20308;-82
2022/12/21 06:11:05;;;;;;;43.65;27.23;;;6.30;1.00;;;;;;6256269;22;20231;-83
2022/12/21 06:13:36;;;;;;;39.00;25.95;;;6.30;1.00;;;;;;6255639;22;20217;-79
2022/12/21 06:16:11;;;;;;;39.25;26.77;;;6.40;1.00;;;;;;6212997;22;20235;-81
2022/12/21 06:18:44;;;;;;;35.75;26.25;;;6.40;1.00;;;;;;6254284;22;20267;-81
2022/12/21 06:21:13;;;;;;;42.38;27.25;;;6.40;1.00;;;;;;6254657;22;20213;-83
2022/12/21 06:23:47;;;;;;;48.30;27.90;;;6.40;1.00;;;;;;6259034;22;20239;-82
2022/12/21 06:26:15;;;;;;;39.05;26.50;;;6.50;1.00;;;;;;6256626;22;20212;-81
2022/12/21 06:28:47;;;;;;;44.95;28.23;;;6.60;1.00;;;;;;6256254;22;20217;-82
2022/12/21 06:31:23;;;;;;;39.97;26.83;;;6.60;1.00;;;;;;6259034;22;20217;-83
2022/12/21 06:33:51;;;;;;;39.95;26.88;;;6.60;1.00;;;;;;6249916;22;20295;-84
2022/12/21 06:36:44;;;;;;;38.92;26.92;;;6.60;1.00;;;;;;6266686;22;20213;-83
2022/12/21 06:39:12;;;;;;;39.33;26.42;;;6.60;1.00;;;;;;6263574;22;20209;-79
2022/12/21 06:41:45;;;;;;;41.00;28.80;;;6.60;1.00;;;;;;6262867;22;20255;-81
2022/12/21 06:44:13;;;;;;;45.83;29.27;;;6.60;1.00;;;;;;6262719;22;20221;-81
2022/12/21 06:46:45;;;;;;;41.30;28.25;;;6.60;1.00;;;;;;6262551;22;20216;-82
2022/12/21 06:49:12;;;;;;;41.78;28.50;;;6.70;1.00;;;;;;6261469;22;20232;-81
2022/12/21 06:51:44;;;;;;;41.80;26.65;;;6.70;1.00;;;;;;6260940;22;20451;-83
2022/12/21 06:54:12;;;;;;;53.75;37.13;;;6.80;1.00;;;;;;6265420;22;20224;-82
2022/12/21 06:56:46;;;;;;;38.55;27.63;;;6.80;1.00;;;;;;6263164;22;20209;-82
2022/12/21 06:59:13;;;;;;;40.05;27.00;;;6.80;1.00;;;;;;6262178;22;20236;-80
2022/12/21 07:01:49;;;;;;;43.13;28.08;;;6.80;1.00;;;;;;6261624;22;20205;-81
2022/12/21 07:04:21;;;;;;;40.97;28.40;;;6.80;1.00;;;;;;6263246;22;20294;-84
2022/12/21 07:06:49;;;;;;;36.22;25.83;;;6.80;1.00;;;;;;6263618;22;20291;-84
2022/12/21 07:09:28;;;;;;;42.53;28.50;;;6.80;1.00;;;;;;6250704;22;20291;-84
2022/12/21 07:11:55;;;;;;;47.53;29.10;;;6.80;1.00;;;;;;6260508;22;20220;-77
2022/12/21 07:14:25;;;;;;;40.88;28.95;;;6.80;1.00;;;;;;6259788;22;20201;-78
2022/12/21 07:16:54;;;;;;;40.60;30.08;;;6.70;1.00;;;;;;6263781;22;20213;-81
2022/12/21 07:19:23;;;;;;;44.15;28.25;;;6.60;1.00;;;;;;6250809;22;20240;-83
2022/12/21 07:21:53;;;;;;;41.70;26.92;;;6.70;1.00;;;;;;6263269;22;20224;-82
2022/12/21 07:24:23;;;;;;;47.10;29.17;;;6.60;1.00;;;;;;6261894;22;20208;-83
2022/12/21 07:26:50;;;;;;;36.10;27.60;;;6.60;1.00;;;;;;6245008;22;20213;-81
2022/12/21 07:29:23;;;;;;;41.28;29.88;;;6.60;1.00;;;;;;6261937;22;20212;-81
2022/12/21 07:31:51;;;;;;;44.47;29.10;;;6.60;1.00;;;;;;6260603;22;20990;-83
2022/12/21 07:34:44;;;;;;;43.22;30.33;;;6.60;1.00;;;;;;6248444;22;20201;-82
2022/12/21 07:37:12;;;;;;;42.05;28.83;;;6.60;1.00;;;;;;6261055;22;20223;-79
2022/12/21 07:39:43;;;;;;;43.15;28.92;;;6.60;1.00;;;;;;6244045;22;20197;-82
2022/12/21 07:42:14;;;;;;;45.60;28.25;;;6.70;1.00;;;;;;6260922;22;20298;-80
2022/12/21 07:44:43;;;;;;;41.33;28.17;;;6.70;1.00;;;;;;6258588;22;20193;-79
2022/12/21 07:47:15;;;;;;;39.25;27.92;;;6.80;1.00;;;;;;6259141;22;20204;-82
2022/12/21 07:49:46;;;;;;;43.83;29.42;;;6.80;1.00;;;;;;6233989;22;20216;-82
2022/12/21 07:52:14;;;;;;;42.08;28.58;;;6.80;1.00;;;;;;6264082;22;20675;-80
2022/12/21 07:54:46;;;;;;;42.83;28.50;;;6.80;1.00;;;;;;6237660;22;20221;-82
2022/12/21 07:57:13;;;;;;;40.47;28.42;;;6.80;1.00;;;;;;6250946;22;20208;-82
2022/12/21 08:00:06;;;;;;;44.15;29.40;;;6.90;1.00;;;;;;6236417;22;20291;-82
2022/12/21 08:02:48;;;;;;;44.20;27.15;;;6.90;1.00;;;;;;6077401;23;20235;-78
2022/12/21 08:05:16;;;;;;;42.83;29.17;;;6.90;1.00;;;;;;6095595;22;20221;-82
2022/12/21 08:07:44;;;;;;;35.30;26.88;;;6.90;1.00;;;;;;6251859;22;20236;-82
2022/12/21 08:10:14;;;;;;;44.13;28.17;;;6.90;1.00;;;;;;6261570;22;20216;-83
2022/12/21 08:12:46;;;;;;;47.55;30.25;;;7.00;1.00;;;;;;6233304;22;20213;-79
2022/12/21 08:15:16;;;;;;;41.17;29.50;;;6.90;1.00;;;;;;6256795;22;20971;-80
2022/12/21 08:17:44;;;;;;;43.92;27.38;;;7.00;1.00;;;;;;6242068;22;20213;-79
2022/12/21 08:20:13;;;;;;;39.03;27.48;;;7.00;1.00;;;;;;6261300;22;20189;-83
2022/12/21 08:22:45;;;;;;;40.08;26.63;;;7.10;1.00;;;;;;6259629;22;20209;-81
2022/12/21 08:25:14;;;;;;;38.10;26.65;;;7.10;1.00;;;;;;6259466;22;20283;-80
2022/12/21 08:27:44;;;;;;;41.00;29.10;;;7.10;1.00;;;;;;6257340;22;20196;-84
2022/12/21 08:30:12;;;;;;;43.55;27.08;;;7.10;1.00;;;;;;6262416;22;20210;-80
2022/12/21 08:32:44;;;;;;;41.40;28.45;;;7.10;1.00;;;;;;6256622;22;20213;-80
2022/12/21 08:35:13;;;;;;;38.35;27.70;;;7.20;1.00;;;;;;6262024;22;20296;-86
2022/12/21 08:37:45;;;;;;;39.58;27.90;;;7.20;1.00;;;;;;6244525;22;20224;-80
2022/12/21 08:40:15;;;;;;;40.97;27.92;;;7.20;1.00;;;;;;6267675;22;20998;-83
2022/12/21 08:42:43;;;;;;;36.53;27.20;;;7.10;1.00;;;;;;6261029;22;20216;-80
2022/12/21 08:45:13;;;;;;;41.30;29.38;;;7.10;1.00;;;;;;6260610;22;20201;-82
2022/12/21 08:47:50;;;;;;;40.78;27.85;;;7.00;1.00;;;;;;6259048;22;20206;-81
2022/12/21 08:50:22;;;;;;;39.60;29.73;;;7.00;1.00;;;;;;6264049;22;20215;-78
2022/12/21 08:52:50;;;;;;;40.33;28.50;;;6.90;1.00;;;;;;6260687;22;20217;-85
2022/12/21 08:55:25;;;;;;;43.63;29.98;;;6.90;1.00;;;;;;6260817;22;20300;-84
2022/12/21 08:57:52;;;;;;;43.17;28.35;;;6.90;1.00;;;;;;6246659;22;20213;-81
2022/12/21 09:03:33;;;;;;;41.92;29.08;;;7.00;1.00;;;;;;6249665;22;20213;-78
2022/12/21 09:06:05;;;;;;;37.53;27.42;;;7.00;1.00;;;;;;6231454;22;20220;-77
2022/12/21 09:08:35;;;;;;;41.10;27.48;;;7.10;1.00;;;;;;6256468;22;20244;-79
2022/12/21 09:11:06;;;;;;;39.85;27.25;;;7.20;1.00;;;;;;6258921;22;20213;-76
2022/12/21 09:13:33;;;;;;;40.03;29.33;;;7.30;1.00;;;;;;6262021;22;20209;-81
2022/12/21 09:16:13;;;;;;;35.35;28.42;;;7.40;1.00;;;;;;6259254;22;20201;-77
2022/12/21 09:18:45;;;;;;;38.50;28.25;;;7.40;1.00;;;;;;6258400;22;20279;-84
2022/12/21 09:21:13;;;;;;;38.35;26.08;;;7.50;1.00;;;;;;6257281;22;20736;-82
2022/12/21 09:23:45;;;;;;;35.28;26.50;;;7.50;1.00;;;;;;6260126;22;20197;-77
2022/12/21 09:26:12;;;;;;;35.40;27.67;;;7.70;1.00;;;;;;6258383;22;20217;-80
2022/12/21 09:28:44;;;;;;;35.92;27.73;;;7.60;1.00;;;;;;6261296;22;20236;-79
2022/12/21 09:31:13;;;;;;;36.28;26.50;;;7.60;1.00;;;;;;6262178;22;20223;-79
2022/12/21 09:33:44;;;;;;;38.90;26.83;;;7.60;1.00;;;;;;6244662;22;20216;-79
2022/12/21 09:36:27;;;;;;;33.80;27.38;;;7.60;1.00;;;;;;6244983;22;20213;-80
2022/12/21 09:38:56;;;;;;;38.40;26.60;;;7.70;1.00;;;;;;6254898;22;20213;-81
2022/12/21 09:41:55;;;;;;;35.13;26.95;;;7.80;1.00;;;;;;6255251;22;20275;-82
2022/12/21 09:44:54;;;;;;;35.10;26.70;;;7.70;1.00;;;;;;6251325;22;20215;-81
2022/12/21 09:47:33;;;;;;;36.10;24.85;;;7.80;1.00;;;;;;6255239;22;20217;-81
2022/12/21 09:50:08;;;;;;;40.75;29.25;;;7.80;1.00;;;;;;6258923;22;20219;-81
2022/12/21 09:52:43;;;;;;;35.70;25.85;;;7.80;1.00;;;;;;6258159;22;20208;-80
2022/12/21 09:55:25;;;;;;;34.50;25.88;;;7.80;1.00;;;;;;6260438;22;20624;-79
2022/12/21 09:57:55;;;;;;;34.97;26.70;;;7.90;1.00;;;;;;6257357;22;20217;-81
2022/12/21 10:00:31;;;;;;;32.50;24.00;;;7.90;1.00;;;;;;6260145;22;20237;-81
2022/12/21 10:03:32;;;;;;;31.67;24.48;;;7.90;1.00;;;;;;6242249;22;20299;-79
2022/12/21 10:06:25;;;;;;;31.33;25.67;;;8.00;1.00;;;;;;6241527;22;20208;-81
2022/12/21 10:09:28;;;;;;;37.42;25.75;;;8.00;1.00;;;;;;6254887;22;21167;-78
2022/12/21 10:12:26;;;;;;;30.23;24.35;;;8.00;1.00;;;;;;6254806;22;20216;-78
2022/12/21 10:15:09;;;;;;;32.85;24.73;;;8.00;1.00;;;;;;6257124;22;20209;-80
2022/12/21 10:17:51;;;;;;;34.33;24.27;;;8.10;1.00;;;;;;6257500;22;20905;-79
2022/12/21 10:20:44;;;;;;;32.63;23.73;;;8.10;1.00;;;;;;6259620;22;20216;-78
2022/12/21 10:23:23;;;;;;;27.83;23.45;;;8.10;1.00;;;;;;6257870;22;21220;-80
2022/12/21 10:25:56;;;;;;;30.30;22.75;;;8.20;1.00;;;;;;6259366;22;20225;-80
2022/12/21 10:28:48;;;;;;;30.50;24.10;;;8.20;1.00;;;;;;6259062;22;20209;-81
2022/12/21 10:31:31;;;;;;;36.22;23.75;;;8.20;1.00;;;;;;6257640;22;21118;-80
2022/12/21 10:34:03;;;;;;;31.08;23.15;;;8.20;1.00;;;;;;6258314;22;20636;-82
2022/12/21 10:36:36;;;;;;;32.70;24.52;;;8.30;1.00;;;;;;6257384;22;20229;-78
2022/12/21 10:39:05;;;;;;;28.70;23.20;;;8.30;1.00;;;;;;6258167;22;20201;-80
2022/12/21 10:41:37;;;;;;;33.50;23.67;;;8.40;1.00;;;;;;6259735;22;20217;-81
2022/12/21 10:44:09;;;;;;;29.70;23.58;;;8.40;1.00;;;;;;6256734;22;20399;-81
2022/12/21 10:46:43;;;;;;;30.20;23.17;;;8.50;1.00;;;;;;6257698;22;20247;-79
2022/12/21 10:49:24;;;;;;;33.88;23.13;;;8.50;1.00;;;;;;6258779;22;20998;-79
2022/12/21 10:51:55;;;;;;;29.60;22.20;;;8.40;1.00;;;;;;6255492;22;20217;-80
2022/12/21 10:54:28;;;;;;;29.98;23.05;;;8.30;1.00;;;;;;6260954;22;20408;-80
2022/12/21 10:57:03;;;;;;;33.50;24.85;;;8.30;1.00;;;;;;6257659;22;20212;-78
2022/12/21 10:59:44;;;;;;;31.20;24.83;;;8.40;1.00;;;;;;6259914;22;20344;-78
2022/12/21 11:02:33;;;;;;;29.30;23.57;;;8.40;1.00;;;;;;6243194;22;20744;-79
2022/12/21 11:05:04;;;;;;;31.38;24.08;;;8.50;1.00;;;;;;6257676;22;20380;-78
2022/12/21 11:07:32;;;;;;;30.98;23.58;;;8.60;1.00;;;;;;6259209;22;20258;-78
2022/12/21 11:10:24;;;;;;;30.60;22.70;;;8.60;1.00;;;;;;6243992;22;20210;-78
2022/12/21 11:12:53;;;;;;;31.67;23.87;;;8.60;1.00;;;;;;6254914;22;20400;-78
2022/12/21 11:15:26;;;;;;;28.03;23.67;;;8.60;1.00;;;;;;6259732;22;20470;-79
2022/12/21 11:17:53;;;;;;;30.77;23.23;;;8.60;1.00;;;;;;6258607;22;20448;-80
2022/12/21 11:20:28;;;;;;;28.60;22.93;;;8.60;1.00;;;;;;6257958;22;20436;-79
2022/12/21 11:23:02;;;;;;;31.60;24.00;;;8.50;1.00;;;;;;6254355;22;20420;-80
2022/12/21 11:25:32;;;;;;;28.80;23.50;;;8.50;1.00;;;;;;6257357;22;21111;-80
2022/12/21 11:28:05;;;;;;;27.10;22.08;;;8.60;1.00;;;;;;6256395;22;20420;-79
2022/12/21 11:30:35;;;;;;;28.15;23.90;;;8.50;1.00;;;;;;6255992;22;20216;-79
2022/12/21 11:33:06;;;;;;;29.57;22.30;;;8.50;1.00;;;;;;6254051;22;20220;-77
2022/12/21 11:35:35;;;;;;;31.25;22.98;;;8.50;1.00;;;;;;6258751;22;20436;-80
2022/12/21 11:38:13;;;;;;;27.70;23.17;;;8.60;1.00;;;;;;6257779;22;20201;-78
2022/12/21 11:41:05;;;;;;;31.02;23.85;;;8.60;1.00;;;;;;6242511;22;20397;-82
2022/12/21 11:43:45;;;;;;;26.13;21.60;;;8.70;1.00;;;;;;6217502;22;20646;-77
2022/12/21 11:46:44;;;;;;;26.30;22.20;;;8.70;1.00;;;;;;6258814;22;20523;-81
2022/12/21 11:49:36;;;;;;;29.87;22.93;;;8.80;1.00;;;;;;6229413;22;20893;-81
2022/12/21 11:52:16;;;;;;;35.63;22.10;;;8.70;1.00;;;;;;6253747;22;20393;-79
2022/12/21 11:55:13;;;;;;;28.00;23.50;;;8.70;1.00;;;;;;6263851;22;20368;-81
2022/12/21 11:57:54;;;;;;;29.60;23.73;;;8.60;1.00;;;;;;6257801;22;20557;-79
2022/12/21 12:00:26;;;;;;;34.63;23.60;;;8.60;1.00;;;;;;6267578;22;20408;-85
2022/12/21 12:03:27;;;;;;;24.48;21.60;;;8.60;1.00;;;;;;6264181;22;20236;-85
2022/12/21 12:06:32;;;;;;;24.85;20.65;;;8.60;1.00;;;;;;6262586;22;20211;-78
2022/12/21 12:09:24;;;;;;;30.80;23.00;;;8.70;1.00;;;;;;6251771;22;20216;-86
2022/12/21 12:12:06;;;;;;;28.70;23.27;;;8.80;1.00;;;;;;6266179;22;20420;-84
2022/12/21 12:15:03;;;;;;;29.53;22.80;;;8.80;1.00;;;;;;6268478;22;20217;-86
2022/12/21 12:17:48;;;;;;;28.87;23.23;;;8.70;1.00;;;;;;6269003;22;20396;-86
2022/12/21 12:31:23;;;;;;;29.87;24.87;;;8.70;1.00;;;;;;5165036;22;20342;-88
2022/12/21 12:34:04;;;;;;;28.20;23.10;;;8.80;1.00;;;;;;5076848;28;20524;-80
2022/12/21 12:36:44;;;;;;;32.15;25.20;;;8.90;1.00;;;;;;5074531;28;20618;-86
2022/12/21 12:39:24;;;;;;;29.53;23.27;;;8.90;1.00;;;;;;5075468;28;21038;-78
2022/12/21 12:42:03;;;;;;;26.30;22.10;;;8.90;1.00;;;;;;5073364;28;20467;-81
2022/12/21 12:44:44;;;;;;;25.10;21.53;;;8.80;1.00;;;;;;5074392;28;20861;-83
2022/12/21 12:47:24;;;;;;;29.13;23.10;;;8.70;1.00;;;;;;5068444;28;20658;-79
2022/12/21 12:50:08;;;;;;;29.58;23.10;;;8.80;1.00;;;;;;5070770;28;20492;-78
2022/12/21 12:52:51;;;;;;;27.00;21.80;;;8.70;1.00;;;;;;5058040;28;20243;-80
2022/12/21 12:55:29;;;;;;;25.97;20.47;;;8.70;1.00;;;;;;5068466;28;21069;-78
2022/12/21 12:58:06;;;;;;;25.42;20.60;;;8.80;1.00;;;;;;5073387;28;20426;-87
2022/12/21 13:00:50;;;;;;;30.67;22.45;;;8.80;1.00;;;;;;5052984;28;20240;-85
2022/12/21 13:03:29;;;;;;;26.60;21.10;;;8.70;1.00;;;;;;5052041;28;20642;-78
2022/12/21 13:06:11;;;;;;;34.47;23.50;;;8.70;1.00;;;;;;5049143;28;20242;-79
2022/12/21 13:08:49;;;;;;;26.20;22.80;;;8.70;1.00;;;;;;5044863;28;20243;-80
2022/12/21 13:11:31;;;;;;;30.73;21.60;;;8.60;1.00;;;;;;5049218;28;21049;-82
2022/12/21 13:14:12;;;;;;;25.30;22.23;;;8.60;1.00;;;;;;5043584;28;20466;-82
2022/12/21 13:16:47;;;;;;;29.42;21.42;;;8.60;1.00;;;;;;5044542;28;21039;-80
2022/12/21 13:19:24;;;;;;;28.93;24.53;;;8.70;1.00;;;;;;5051613;28;20316;-77
2022/12/21 13:22:08;;;;;;;27.27;22.52;;;8.80;1.00;;;;;;5038722;28;21192;-79
2022/12/21 13:24:43;;;;;;;29.07;24.23;;;8.80;1.00;;;;;;5040732;28;20329;-85
2022/12/21 13:27:23;;;;;;;28.53;23.73;;;8.80;1.00;;;;;;5048286;28;20586;-82
2022/12/21 13:30:07;;;;;;;29.30;22.87;;;8.90;1.00;;;;;;5050597;28;20451;-82
2022/12/21 13:32:44;;;;;;;25.57;21.47;;;8.90;1.00;;;;;;5037176;28;21100;-83
2022/12/21 13:35:27;;;;;;;27.47;22.70;;;9.00;1.00;;;;;;5038688;28;20546;-80
2022/12/21 13:38:06;;;;;;;26.33;21.77;;;9.00;1.00;;;;;;5040309;28;20437;-88
2022/12/21 13:40:44;;;;;;;26.05;19.92;;;9.10;1.00;;;;;;5038153;28;20994;-78
2022/12/21 13:43:23;;;;;;;27.65;21.60;;;8.90;1.00;;;;;;5024040;28;20363;-83
2022/12/21 13:46:01;;;;;;;26.23;20.83;;;8.80;1.00;;;;;;5037576;28;20338;-80
2022/12/21 13:48:33;;;;;;;25.53;21.50;;;8.70;1.00;;;;;;5038392;28;20237;-77
2022/12/21 13:54:17;;;;;;;24.45;21.00;;;8.50;1.00;;;;;;5031312;28;20231;-79